AAL1085 KLAX-KDFW
Flight info
| Callsign | AAL1085 |
|---|---|
| Flight time | N/A |
| Altitude | 35000 |
| Route | DOTSS2 CNERY BLH J169 TFD J50 SSO J4 INK GEEKY BOOVE7 |
| Aircraft | B738/M-SDE2E3FGHIRWXY/LB1 |
Departure
| Time | 2026-05-08 00:46 |
|---|---|
| Airport | Los Angeles International Airport (KLAX) |
Arrival
| Time | N/A |
|---|---|
| Airport | Dallas Fort Worth International Airport (KDFW) |
| Time | Latitude | Longitude | Altitude | Speed | Heading |
|---|---|---|---|---|---|
| 2026-05-08 00:23 | 33.94732 | -118.40064 | 121 ft | 0 kts | 263° |
| 2026-05-08 00:32 | 33.94733 | -118.40056 | 121 ft | 2 kts | 266° |
| 2026-05-08 00:32 | 33.94732 | -118.40037 | 121 ft | 2 kts | 284° |
| 2026-05-08 00:32 | 33.94724 | -118.40019 | 120 ft | 2 kts | 330° |
| 2026-05-08 00:33 | 33.94711 | -118.40014 | 121 ft | 1 kts | 357° |
| 2026-05-08 00:33 | 33.94709 | -118.40014 | 121 ft | 0 kts | 358° |
| 2026-05-08 00:37 | 33.94712 | -118.40014 | 120 ft | 2 kts | 358° |
| 2026-05-08 00:37 | 33.94739 | -118.40015 | 122 ft | 6 kts | 358° |
| 2026-05-08 00:37 | 33.94783 | -118.40012 | 122 ft | 1 kts | 14° |
| 2026-05-08 00:38 | 33.94848 | -118.40054 | 122 ft | 3 kts | 294° |
| 2026-05-08 00:38 | 33.94875 | -118.40081 | 124 ft | 8 kts | 336° |
| 2026-05-08 00:38 | 33.94920 | -118.40043 | 123 ft | 0 kts | 73° |
| 2026-05-08 00:38 | 33.94925 | -118.40025 | 124 ft | 6 kts | 73° |
| 2026-05-08 00:39 | 33.94934 | -118.39981 | 122 ft | 0 kts | 78° |
| 2026-05-08 00:39 | 33.94935 | -118.39974 | 123 ft | 4 kts | 78° |
| 2026-05-08 00:39 | 33.94947 | -118.39939 | 122 ft | 0 kts | 54° |
| 2026-05-08 00:42 | 33.94979 | -118.39924 | 124 ft | 13 kts | 4° |
| 2026-05-08 00:42 | 33.95042 | -118.39986 | 121 ft | 16 kts | 270° |
| 2026-05-08 00:43 | 33.95039 | -118.40000 | 123 ft | 0 kts | 257° |
| 2026-05-08 00:45 | 33.95021 | -118.40120 | 122 ft | 43 kts | 262° |
| 2026-05-08 00:46 | 33.94954 | -118.40733 | 124 ft | 103 kts | 264° |
| 2026-05-08 00:46 | 33.94846 | -118.41802 | 123 ft | 153 kts | 266° |
| 2026-05-08 00:46 | 33.94744 | -118.43233 | 151 ft | 192 kts | 265° |
| 2026-05-08 00:46 | 33.94651 | -118.44850 | 769 ft | 191 kts | 266° |
| 2026-05-08 00:47 | 33.94538 | -118.46489 | 1353 ft | 200 kts | 263° |
| 2026-05-08 00:47 | 33.94329 | -118.48170 | 1876 ft | 206 kts | 263° |
| 2026-05-08 00:47 | 33.94152 | -118.49945 | 2129 ft | 224 kts | 262° |
| 2026-05-08 00:47 | 33.93916 | -118.51873 | 2397 ft | 239 kts | 263° |
| 2026-05-08 00:48 | 33.93836 | -118.53890 | 2878 ft | 246 kts | 268° |
| 2026-05-08 00:48 | 33.93753 | -118.55988 | 3312 ft | 258 kts | 266° |
| 2026-05-08 00:48 | 33.93590 | -118.58158 | 3996 ft | 262 kts | 257° |
| 2026-05-08 00:48 | 33.92735 | -118.60068 | 4666 ft | 264 kts | 221° |
| 2026-05-08 00:49 | 33.91112 | -118.61071 | 5339 ft | 267 kts | 191° |
| 2026-05-08 00:49 | 33.89247 | -118.61096 | 5994 ft | 271 kts | 169° |
| 2026-05-08 00:49 | 33.87436 | -118.60441 | 6663 ft | 274 kts | 160° |
| 2026-05-08 00:49 | 33.85652 | -118.59592 | 7314 ft | 277 kts | 158° |
| 2026-05-08 00:50 | 33.83859 | -118.58711 | 7969 ft | 280 kts | 158° |
| 2026-05-08 00:50 | 33.82045 | -118.57829 | 8614 ft | 282 kts | 159° |
| 2026-05-08 00:50 | 33.80210 | -118.56953 | 9246 ft | 285 kts | 159° |
| 2026-05-08 00:50 | 33.78354 | -118.56079 | 9867 ft | 288 kts | 159° |
| 2026-05-08 00:51 | 33.76466 | -118.55200 | 10346 ft | 298 kts | 159° |
| 2026-05-08 00:51 | 33.74466 | -118.54275 | 10497 ft | 318 kts | 159° |
| 2026-05-08 00:51 | 33.72338 | -118.53291 | 10659 ft | 337 kts | 158° |
| 2026-05-08 00:51 | 33.70256 | -118.51847 | 10780 ft | 357 kts | 137° |
| 2026-05-08 00:52 | 33.68754 | -118.49413 | 10960 ft | 372 kts | 113° |
| 2026-05-08 00:52 | 33.67906 | -118.46444 | 11416 ft | 379 kts | 107° |
| 2026-05-08 00:52 | 33.67109 | -118.43408 | 11978 ft | 382 kts | 108° |
| 2026-05-08 00:52 | 33.66258 | -118.40380 | 12577 ft | 384 kts | 109° |
| 2026-05-08 00:53 | 33.65366 | -118.37337 | 13139 ft | 387 kts | 109° |
| 2026-05-08 00:53 | 33.64622 | -118.34260 | 13654 ft | 391 kts | 101° |
| 2026-05-08 00:53 | 33.64360 | -118.31001 | 14189 ft | 394 kts | 90° |
| 2026-05-08 00:53 | 33.64376 | -118.27708 | 14731 ft | 396 kts | 89° |
| 2026-05-08 00:54 | 33.64408 | -118.24383 | 15234 ft | 399 kts | 89° |
| 2026-05-08 00:54 | 33.64435 | -118.21036 | 15728 ft | 402 kts | 89° |
| 2026-05-08 00:54 | 33.64453 | -118.17668 | 16218 ft | 405 kts | 90° |
| 2026-05-08 00:54 | 33.64462 | -118.14267 | 16701 ft | 408 kts | 90° |
| 2026-05-08 00:55 | 33.64464 | -118.10850 | 17168 ft | 411 kts | 90° |
| 2026-05-08 00:55 | 33.64463 | -118.07449 | 17618 ft | 414 kts | 90° |
| 2026-05-08 00:55 | 33.64460 | -118.03989 | 18064 ft | 416 kts | 90° |
| 2026-05-08 00:55 | 33.64455 | -118.00496 | 18502 ft | 419 kts | 90° |
| 2026-05-08 00:56 | 33.64450 | -117.96980 | 18931 ft | 422 kts | 90° |
| 2026-05-08 00:56 | 33.64444 | -117.93449 | 19349 ft | 424 kts | 90° |
| 2026-05-08 00:56 | 33.64437 | -117.89896 | 19746 ft | 427 kts | 90° |
| 2026-05-08 00:56 | 33.64429 | -117.86312 | 20153 ft | 430 kts | 90° |
| 2026-05-08 00:57 | 33.64420 | -117.82721 | 20542 ft | 432 kts | 90° |
| 2026-05-08 00:57 | 33.64249 | -117.79110 | 20896 ft | 435 kts | 98° |
| 2026-05-08 00:57 | 33.63567 | -117.75563 | 21248 ft | 437 kts | 107° |
| 2026-05-08 00:57 | 33.62686 | -117.72103 | 21630 ft | 439 kts | 107° |
| 2026-05-08 00:58 | 33.61781 | -117.68595 | 21967 ft | 441 kts | 107° |
| 2026-05-08 00:58 | 33.60876 | -117.65058 | 22286 ft | 444 kts | 107° |
| 2026-05-08 00:58 | 33.59976 | -117.61491 | 22599 ft | 447 kts | 107° |
| 2026-05-08 00:58 | 33.59083 | -117.57913 | 22909 ft | 449 kts | 107° |
| 2026-05-08 00:59 | 33.58190 | -117.54313 | 23235 ft | 451 kts | 107° |
| 2026-05-08 00:59 | 33.57295 | -117.50696 | 23524 ft | 453 kts | 107° |
| 2026-05-08 00:59 | 33.56395 | -117.47062 | 23782 ft | 456 kts | 107° |
| 2026-05-08 00:59 | 33.55485 | -117.43394 | 23971 ft | 461 kts | 107° |
| 2026-05-08 01:00 | 33.54567 | -117.39699 | 24230 ft | 463 kts | 107° |
| 2026-05-08 01:00 | 33.53644 | -117.35994 | 24476 ft | 465 kts | 107° |
| 2026-05-08 01:00 | 33.52727 | -117.32314 | 24707 ft | 468 kts | 107° |
| 2026-05-08 01:00 | 33.51792 | -117.28567 | 24988 ft | 468 kts | 107° |
| 2026-05-08 01:01 | 33.50885 | -117.24812 | 25282 ft | 469 kts | 103° |
| 2026-05-08 01:01 | 33.50346 | -117.20957 | 25521 ft | 471 kts | 94° |
| 2026-05-08 01:01 | 33.50264 | -117.17028 | 25772 ft | 472 kts | 90° |
| 2026-05-08 01:01 | 33.50251 | -117.13125 | 26027 ft | 473 kts | 90° |
| 2026-05-08 01:02 | 33.50241 | -117.09170 | 26240 ft | 475 kts | 90° |
| 2026-05-08 01:02 | 33.50219 | -117.05200 | 26441 ft | 477 kts | 90° |
| 2026-05-08 01:02 | 33.50182 | -117.01218 | 26653 ft | 479 kts | 91° |
| 2026-05-08 01:02 | 33.50133 | -116.97226 | 26863 ft | 480 kts | 91° |
| 2026-05-08 01:03 | 33.50075 | -116.93212 | 27075 ft | 481 kts | 91° |
| 2026-05-08 01:03 | 33.50014 | -116.89203 | 27339 ft | 481 kts | 91° |
| 2026-05-08 01:03 | 33.49951 | -116.85199 | 27623 ft | 480 kts | 91° |
| 2026-05-08 01:03 | 33.49888 | -116.81243 | 27865 ft | 481 kts | 91° |
| 2026-05-08 01:04 | 33.49823 | -116.77235 | 28018 ft | 483 kts | 91° |
| 2026-05-08 01:04 | 33.49757 | -116.73207 | 28189 ft | 484 kts | 91° |
| 2026-05-08 01:04 | 33.49691 | -116.69181 | 28410 ft | 484 kts | 91° |
| 2026-05-08 01:04 | 33.49623 | -116.65149 | 28675 ft | 482 kts | 91° |
| 2026-05-08 01:05 | 33.49554 | -116.61136 | 28967 ft | 481 kts | 91° |
| 2026-05-08 01:05 | 33.49484 | -116.57130 | 29235 ft | 480 kts | 91° |
| 2026-05-08 01:05 | 33.49412 | -116.53131 | 29446 ft | 480 kts | 91° |
| 2026-05-08 01:05 | 33.49340 | -116.49134 | 29716 ft | 479 kts | 91° |
| 2026-05-08 01:06 | 33.49267 | -116.45134 | 29831 ft | 481 kts | 91° |
| 2026-05-08 01:06 | 33.49192 | -116.41114 | 29951 ft | 483 kts | 91° |
| 2026-05-08 01:06 | 33.49129 | -116.37098 | 30216 ft | 481 kts | 91° |
| 2026-05-08 01:06 | 33.49072 | -116.33144 | 30468 ft | 480 kts | 91° |
| 2026-05-08 01:07 | 33.49016 | -116.29156 | 30801 ft | 477 kts | 91° |
| 2026-05-08 01:07 | 33.48959 | -116.25207 | 31225 ft | 472 kts | 91° |
| 2026-05-08 01:07 | 33.48899 | -116.21285 | 31535 ft | 469 kts | 91° |
| 2026-05-08 01:07 | 33.48837 | -116.17380 | 31802 ft | 468 kts | 91° |
| 2026-05-08 01:08 | 33.48774 | -116.13483 | 32057 ft | 466 kts | 91° |
| 2026-05-08 01:08 | 33.48710 | -116.09603 | 32288 ft | 465 kts | 91° |
| 2026-05-08 01:08 | 33.48697 | -116.05728 | 32473 ft | 465 kts | 86° |
| 2026-05-08 01:08 | 33.49104 | -116.01881 | 32636 ft | 466 kts | 78° |
| 2026-05-08 01:09 | 33.50009 | -115.98156 | 32827 ft | 465 kts | 70° |
| 2026-05-08 01:09 | 33.51108 | -115.94519 | 33037 ft | 464 kts | 70° |
| 2026-05-08 01:09 | 33.52206 | -115.90934 | 33205 ft | 464 kts | 70° |
| 2026-05-08 01:09 | 33.53311 | -115.87290 | 33333 ft | 465 kts | 70° |
| 2026-05-08 01:10 | 33.54400 | -115.83635 | 33476 ft | 465 kts | 70° |
| 2026-05-08 01:10 | 33.55479 | -115.79967 | 33614 ft | 466 kts | 70° |
| 2026-05-08 01:10 | 33.56552 | -115.76287 | 33653 ft | 469 kts | 71° |
| 2026-05-08 01:10 | 33.57627 | -115.72586 | 33778 ft | 470 kts | 71° |
| 2026-05-08 01:11 | 33.58700 | -115.68892 | 34013 ft | 467 kts | 71° |
| 2026-05-08 01:11 | 33.59765 | -115.65223 | 34275 ft | 465 kts | 71° |
| 2026-05-08 01:11 | 33.60821 | -115.61557 | 34434 ft | 464 kts | 72° |
| 2026-05-08 01:12 | 33.61828 | -115.53972 | 34615 ft | 466 kts | 91° |
| 2026-05-08 01:12 | 33.61735 | -115.50094 | 34806 ft | 464 kts | 92° |
| 2026-05-08 01:12 | 33.61602 | -115.46225 | 34959 ft | 464 kts | 92° |
| 2026-05-08 01:13 | 33.61338 | -115.38461 | 35000 ft | 467 kts | 92° |
| 2026-05-08 01:13 | 33.61115 | -115.30659 | 35006 ft | 468 kts | 92° |
| 2026-05-08 01:14 | 33.60912 | -115.22844 | 35017 ft | 468 kts | 92° |
| 2026-05-08 01:14 | 33.60708 | -115.15040 | 34995 ft | 467 kts | 92° |
| 2026-05-08 01:15 | 33.60498 | -115.07313 | 34995 ft | 465 kts | 92° |
| 2026-05-08 01:15 | 33.60282 | -114.99562 | 34995 ft | 464 kts | 92° |
| 2026-05-08 01:16 | 33.60062 | -114.91834 | 35008 ft | 462 kts | 92° |
| 2026-05-08 01:16 | 33.59839 | -114.84143 | 34996 ft | 460 kts | 92° |
| 2026-05-08 01:17 | 33.59610 | -114.76468 | 34998 ft | 459 kts | 92° |
| 2026-05-08 01:17 | 33.59067 | -114.68848 | 35007 ft | 458 kts | 96° |
| 2026-05-08 01:18 | 33.58336 | -114.61315 | 35007 ft | 458 kts | 97° |
| 2026-05-08 01:18 | 33.57611 | -114.53721 | 35007 ft | 458 kts | 96° |
| 2026-05-08 01:19 | 33.56915 | -114.46124 | 34998 ft | 458 kts | 96° |
| 2026-05-08 01:19 | 33.56223 | -114.38507 | 35003 ft | 459 kts | 96° |
| 2026-05-08 01:20 | 33.55527 | -114.30878 | 35010 ft | 461 kts | 96° |
| 2026-05-08 01:20 | 33.54827 | -114.23276 | 35003 ft | 463 kts | 96° |
| 2026-05-08 01:21 | 33.54114 | -114.15600 | 35002 ft | 464 kts | 96° |
| 2026-05-08 01:21 | 33.53394 | -114.07891 | 35006 ft | 466 kts | 96° |
| 2026-05-08 01:22 | 33.52667 | -114.00164 | 34999 ft | 467 kts | 96° |
| 2026-05-08 01:22 | 33.52054 | -113.93676 | 35009 ft | 468 kts | 96° |
| 2026-05-08 01:23 | 33.51323 | -113.85987 | 34999 ft | 468 kts | 96° |
| 2026-05-08 01:23 | 33.50589 | -113.78236 | 35007 ft | 468 kts | 96° |
| 2026-05-08 01:24 | 33.49853 | -113.70501 | 35005 ft | 467 kts | 96° |
| 2026-05-08 01:24 | 33.49112 | -113.62772 | 35000 ft | 466 kts | 96° |
| 2026-05-08 01:25 | 33.48247 | -113.53811 | 34995 ft | 465 kts | 96° |
| 2026-05-08 01:25 | 33.47622 | -113.47375 | 35004 ft | 464 kts | 96° |
| 2026-05-08 01:26 | 33.46878 | -113.39756 | 34995 ft | 463 kts | 97° |
| 2026-05-08 01:26 | 33.45470 | -113.32260 | 35003 ft | 462 kts | 113° |
| 2026-05-08 01:27 | 33.42730 | -113.25314 | 34996 ft | 461 kts | 116° |
| 2026-05-08 01:27 | 33.39943 | -113.18444 | 35003 ft | 461 kts | 116° |
| 2026-05-08 01:28 | 33.37172 | -113.11521 | 35001 ft | 461 kts | 115° |
| 2026-05-08 01:28 | 33.34421 | -113.04587 | 35000 ft | 461 kts | 115° |
| 2026-05-08 01:29 | 33.31669 | -112.97647 | 35003 ft | 461 kts | 115° |
| 2026-05-08 01:29 | 33.28929 | -112.90753 | 35001 ft | 462 kts | 115° |
| 2026-05-08 01:30 | 33.26168 | -112.83823 | 35005 ft | 462 kts | 115° |
| 2026-05-08 01:30 | 33.23400 | -112.76891 | 35001 ft | 462 kts | 115° |
| 2026-05-08 01:31 | 33.20624 | -112.69953 | 34997 ft | 463 kts | 115° |
| 2026-05-08 01:31 | 33.17844 | -112.63020 | 34996 ft | 463 kts | 116° |
| 2026-05-08 01:32 | 33.15055 | -112.56077 | 35002 ft | 463 kts | 116° |
| 2026-05-08 01:32 | 33.12280 | -112.49184 | 35009 ft | 463 kts | 116° |
| 2026-05-08 01:33 | 33.09484 | -112.42252 | 35007 ft | 464 kts | 116° |
| 2026-05-08 01:33 | 33.06680 | -112.35315 | 35005 ft | 464 kts | 116° |
| 2026-05-08 01:34 | 33.03872 | -112.28381 | 34999 ft | 464 kts | 116° |
| 2026-05-08 01:34 | 33.01063 | -112.21457 | 35005 ft | 464 kts | 116° |
| 2026-05-08 01:35 | 32.98248 | -112.14535 | 35008 ft | 464 kts | 116° |
| 2026-05-08 01:35 | 32.95431 | -112.07618 | 34995 ft | 464 kts | 116° |
| 2026-05-08 01:36 | 32.92630 | -112.00754 | 35000 ft | 464 kts | 116° |
| 2026-05-08 01:36 | 32.89805 | -111.93845 | 35001 ft | 464 kts | 116° |
| 2026-05-08 01:37 | 32.87545 | -111.86677 | 35018 ft | 462 kts | 104° |
| 2026-05-08 01:37 | 32.85990 | -111.79238 | 35005 ft | 463 kts | 104° |
| 2026-05-08 01:38 | 32.84393 | -111.71819 | 34997 ft | 463 kts | 104° |
| 2026-05-08 01:38 | 32.82749 | -111.64416 | 34997 ft | 463 kts | 105° |
| 2026-05-08 01:39 | 32.81100 | -111.57067 | 35000 ft | 463 kts | 105° |
| 2026-05-08 01:39 | 32.79430 | -111.49672 | 35005 ft | 463 kts | 105° |
| 2026-05-08 01:40 | 32.77759 | -111.42287 | 35001 ft | 463 kts | 105° |
| 2026-05-08 01:40 | 32.76084 | -111.34896 | 35000 ft | 464 kts | 105° |
| 2026-05-08 01:41 | 32.74403 | -111.27499 | 35003 ft | 464 kts | 105° |
| 2026-05-08 01:41 | 32.72715 | -111.20093 | 35000 ft | 465 kts | 105° |
| 2026-05-08 01:42 | 32.71021 | -111.12684 | 35001 ft | 465 kts | 105° |
| 2026-05-08 01:42 | 32.69330 | -111.05308 | 34996 ft | 466 kts | 105° |
| 2026-05-08 01:43 | 32.67622 | -110.97885 | 35002 ft | 467 kts | 105° |
| 2026-05-08 01:43 | 32.65905 | -110.90438 | 34999 ft | 467 kts | 105° |
| 2026-05-08 01:44 | 32.64181 | -110.82988 | 34999 ft | 468 kts | 105° |
| 2026-05-08 01:44 | 32.62574 | -110.76058 | 35003 ft | 469 kts | 105° |
| 2026-05-08 01:45 | 32.60836 | -110.68585 | 35004 ft | 470 kts | 105° |
| 2026-05-08 01:45 | 32.59094 | -110.61117 | 35004 ft | 470 kts | 105° |
| 2026-05-08 01:46 | 32.57357 | -110.53681 | 34999 ft | 470 kts | 105° |
| 2026-05-08 01:46 | 32.55611 | -110.46216 | 34997 ft | 470 kts | 105° |
| 2026-05-08 01:47 | 32.53864 | -110.38755 | 34996 ft | 469 kts | 105° |
| 2026-05-08 01:47 | 32.52111 | -110.31296 | 35000 ft | 469 kts | 105° |
| 2026-05-08 01:48 | 32.49476 | -110.20120 | 35006 ft | 469 kts | 105° |
| 2026-05-08 01:48 | 32.47721 | -110.12707 | 34998 ft | 470 kts | 105° |
| 2026-05-08 01:49 | 32.45949 | -110.05242 | 35006 ft | 470 kts | 105° |
| 2026-05-08 01:49 | 32.44173 | -109.97782 | 35002 ft | 471 kts | 105° |
| 2026-05-08 01:50 | 32.42400 | -109.90358 | 35002 ft | 471 kts | 106° |
| 2026-05-08 01:50 | 32.40615 | -109.82900 | 34998 ft | 471 kts | 106° |
| 2026-05-08 01:51 | 32.38824 | -109.75443 | 34995 ft | 471 kts | 106° |
| 2026-05-08 01:51 | 32.37029 | -109.67987 | 35007 ft | 471 kts | 106° |
| 2026-05-08 01:52 | 32.35232 | -109.60544 | 35003 ft | 471 kts | 106° |
| 2026-05-08 01:52 | 32.33431 | -109.53107 | 34999 ft | 470 kts | 106° |
| 2026-05-08 01:53 | 32.31627 | -109.45675 | 34995 ft | 470 kts | 106° |
| 2026-05-08 01:53 | 32.29832 | -109.38302 | 35004 ft | 469 kts | 106° |
| 2026-05-08 01:54 | 32.28026 | -109.30901 | 34997 ft | 468 kts | 106° |
| 2026-05-08 01:54 | 32.26486 | -109.23432 | 34992 ft | 467 kts | 97° |
| 2026-05-08 01:55 | 32.25784 | -109.15802 | 35004 ft | 467 kts | 95° |
| 2026-05-08 01:55 | 32.25139 | -109.08150 | 34996 ft | 467 kts | 96° |
| 2026-05-08 01:56 | 32.24452 | -109.00564 | 35009 ft | 467 kts | 96° |
| 2026-05-08 01:56 | 32.23726 | -108.92940 | 35006 ft | 467 kts | 96° |
| 2026-05-08 01:57 | 32.22982 | -108.85292 | 35006 ft | 468 kts | 96° |
| 2026-05-08 01:57 | 32.22234 | -108.77644 | 35002 ft | 469 kts | 96° |
| 2026-05-08 01:58 | 32.21482 | -108.69985 | 35004 ft | 470 kts | 96° |
| 2026-05-08 01:58 | 32.20728 | -108.62347 | 35004 ft | 470 kts | 97° |
| 2026-05-08 01:59 | 32.19964 | -108.54662 | 35002 ft | 471 kts | 97° |
| 2026-05-08 01:59 | 32.19195 | -108.46966 | 35009 ft | 472 kts | 97° |
| 2026-05-08 02:00 | 32.18421 | -108.39268 | 35000 ft | 472 kts | 97° |
| 2026-05-08 02:00 | 32.17641 | -108.31569 | 35009 ft | 472 kts | 97° |
| 2026-05-08 02:01 | 32.16862 | -108.23912 | 35004 ft | 472 kts | 97° |
| 2026-05-08 02:01 | 32.16074 | -108.16223 | 34998 ft | 471 kts | 97° |
| 2026-05-08 02:02 | 32.15281 | -108.08532 | 35004 ft | 471 kts | 97° |
| 2026-05-08 02:02 | 32.14484 | -108.00852 | 35002 ft | 470 kts | 97° |
| 2026-05-08 02:03 | 32.13690 | -107.93240 | 35000 ft | 470 kts | 97° |
| 2026-05-08 02:03 | 32.12887 | -107.85583 | 35002 ft | 469 kts | 97° |
| 2026-05-08 02:04 | 32.12079 | -107.77935 | 34998 ft | 469 kts | 97° |
| 2026-05-08 02:04 | 32.11269 | -107.70305 | 35000 ft | 469 kts | 97° |
| 2026-05-08 02:05 | 32.10455 | -107.62679 | 35003 ft | 469 kts | 97° |
| 2026-05-08 02:05 | 32.09633 | -107.55035 | 35008 ft | 469 kts | 97° |
| 2026-05-08 02:06 | 32.08809 | -107.47403 | 35004 ft | 469 kts | 97° |
| 2026-05-08 02:06 | 32.07984 | -107.39811 | 34997 ft | 469 kts | 97° |
| 2026-05-08 02:07 | 32.07149 | -107.32168 | 34998 ft | 469 kts | 97° |
| 2026-05-08 02:07 | 32.06309 | -107.24526 | 35002 ft | 470 kts | 97° |
| 2026-05-08 02:08 | 32.05465 | -107.16887 | 34996 ft | 470 kts | 97° |
| 2026-05-08 02:08 | 32.04615 | -107.09244 | 35008 ft | 470 kts | 97° |
| 2026-05-08 02:09 | 32.03761 | -107.01605 | 35004 ft | 470 kts | 97° |
| 2026-05-08 02:09 | 32.02907 | -106.94003 | 35003 ft | 470 kts | 97° |
| 2026-05-08 02:10 | 32.02043 | -106.86352 | 34998 ft | 470 kts | 97° |
| 2026-05-08 02:10 | 32.01174 | -106.78706 | 35001 ft | 470 kts | 97° |
| 2026-05-08 02:11 | 32.00449 | -106.72357 | 35007 ft | 470 kts | 97° |
| 2026-05-08 02:11 | 31.99429 | -106.63470 | 35005 ft | 470 kts | 98° |
| 2026-05-08 02:12 | 31.98692 | -106.57087 | 35003 ft | 470 kts | 98° |
| 2026-05-08 02:12 | 31.97808 | -106.49463 | 34996 ft | 470 kts | 98° |
| 2026-05-08 02:13 | 31.96926 | -106.41895 | 35012 ft | 469 kts | 98° |
| 2026-05-08 02:13 | 31.96033 | -106.34270 | 34997 ft | 469 kts | 98° |
| 2026-05-08 02:14 | 31.95158 | -106.26646 | 34996 ft | 469 kts | 95° |
| 2026-05-08 02:14 | 31.94920 | -106.19024 | 35001 ft | 469 kts | 90° |
| 2026-05-08 02:15 | 31.94885 | -106.11344 | 34998 ft | 469 kts | 90° |
| 2026-05-08 02:15 | 31.94810 | -106.03658 | 34998 ft | 469 kts | 91° |
| 2026-05-08 02:16 | 31.94686 | -105.95969 | 34993 ft | 470 kts | 91° |
| 2026-05-08 02:16 | 31.94544 | -105.88319 | 35003 ft | 470 kts | 91° |
| 2026-05-08 02:17 | 31.94397 | -105.80600 | 35002 ft | 471 kts | 91° |
| 2026-05-08 02:17 | 31.94247 | -105.72882 | 35010 ft | 472 kts | 91° |
| 2026-05-08 02:18 | 31.94093 | -105.65158 | 35000 ft | 472 kts | 91° |
| 2026-05-08 02:18 | 31.93934 | -105.57408 | 34998 ft | 473 kts | 91° |
| 2026-05-08 02:19 | 31.93771 | -105.49720 | 35011 ft | 473 kts | 91° |
| 2026-05-08 02:19 | 31.93603 | -105.41972 | 35007 ft | 473 kts | 91° |
| 2026-05-08 02:20 | 31.93431 | -105.34241 | 34998 ft | 472 kts | 91° |
| 2026-05-08 02:20 | 31.93263 | -105.26511 | 34999 ft | 471 kts | 91° |
| 2026-05-08 02:21 | 31.93105 | -105.18862 | 34998 ft | 470 kts | 91° |
| 2026-05-08 02:21 | 31.92942 | -105.11170 | 34997 ft | 469 kts | 91° |
| 2026-05-08 02:22 | 31.92773 | -105.03489 | 35005 ft | 468 kts | 91° |
| 2026-05-08 02:22 | 31.92599 | -104.95833 | 34998 ft | 467 kts | 91° |
| 2026-05-08 02:23 | 31.92421 | -104.88179 | 34986 ft | 467 kts | 91° |
| 2026-05-08 02:23 | 31.92238 | -104.80556 | 35006 ft | 470 kts | 91° |
| 2026-05-08 02:24 | 31.92049 | -104.72843 | 35008 ft | 473 kts | 91° |
| 2026-05-08 02:24 | 31.91854 | -104.65091 | 34999 ft | 473 kts | 91° |
| 2026-05-08 02:25 | 31.91655 | -104.57356 | 34997 ft | 473 kts | 92° |
| 2026-05-08 02:25 | 31.91451 | -104.49618 | 34998 ft | 472 kts | 92° |
| 2026-05-08 02:26 | 31.91243 | -104.41905 | 34997 ft | 471 kts | 92° |
| 2026-05-08 02:26 | 31.91033 | -104.34258 | 35002 ft | 470 kts | 92° |
| 2026-05-08 02:27 | 31.90831 | -104.27105 | 34998 ft | 469 kts | 92° |
| 2026-05-08 02:27 | 31.90611 | -104.19447 | 34998 ft | 468 kts | 92° |
| 2026-05-08 02:28 | 31.90387 | -104.11804 | 35007 ft | 467 kts | 92° |
| 2026-05-08 02:28 | 31.90159 | -104.04167 | 34999 ft | 466 kts | 92° |
| 2026-05-08 02:29 | 31.89928 | -103.96610 | 35005 ft | 465 kts | 92° |
| 2026-05-08 02:29 | 31.89691 | -103.88992 | 34999 ft | 465 kts | 92° |
| 2026-05-08 02:30 | 31.89450 | -103.81381 | 35004 ft | 465 kts | 92° |
| 2026-05-08 02:30 | 31.89205 | -103.73781 | 35004 ft | 465 kts | 92° |
| 2026-05-08 02:31 | 31.88955 | -103.66180 | 35004 ft | 465 kts | 92° |
| 2026-05-08 02:31 | 31.88700 | -103.58570 | 35005 ft | 466 kts | 92° |
| 2026-05-08 02:32 | 31.88440 | -103.50952 | 35007 ft | 466 kts | 92° |
| 2026-05-08 02:32 | 31.88175 | -103.43322 | 35000 ft | 467 kts | 92° |
| 2026-05-08 02:33 | 31.87906 | -103.35676 | 35001 ft | 468 kts | 92° |
| 2026-05-08 02:33 | 31.87632 | -103.28024 | 34999 ft | 468 kts | 92° |
| 2026-05-08 02:34 | 31.87892 | -103.20443 | 35011 ft | 468 kts | 81° |
| 2026-05-08 02:34 | 31.88943 | -103.12871 | 35005 ft | 468 kts | 80° |
| 2026-05-08 02:35 | 31.90019 | -103.05310 | 34999 ft | 468 kts | 81° |
| 2026-05-08 02:35 | 31.91053 | -102.97728 | 35004 ft | 468 kts | 81° |
| 2026-05-08 02:36 | 31.92051 | -102.90192 | 35002 ft | 468 kts | 81° |
| 2026-05-08 02:36 | 31.93043 | -102.82611 | 34998 ft | 468 kts | 81° |
| 2026-05-08 02:37 | 31.94032 | -102.75019 | 35007 ft | 468 kts | 81° |
| 2026-05-08 02:37 | 31.95016 | -102.67441 | 34999 ft | 468 kts | 81° |
| 2026-05-08 02:38 | 31.95996 | -102.59863 | 34998 ft | 468 kts | 81° |
| 2026-05-08 02:38 | 31.96968 | -102.52307 | 35006 ft | 467 kts | 81° |
| 2026-05-08 02:39 | 31.97938 | -102.44732 | 34998 ft | 467 kts | 81° |
| 2026-05-08 02:39 | 31.98904 | -102.37155 | 34998 ft | 467 kts | 81° |
| 2026-05-08 02:40 | 31.99858 | -102.29635 | 34999 ft | 467 kts | 81° |
| 2026-05-08 02:40 | 32.00812 | -102.22070 | 35009 ft | 467 kts | 81° |
| 2026-05-08 02:41 | 32.01763 | -102.14499 | 35009 ft | 467 kts | 82° |
| 2026-05-08 02:41 | 32.02709 | -102.06929 | 34999 ft | 466 kts | 82° |
| 2026-05-08 02:42 | 32.03651 | -101.99357 | 34998 ft | 466 kts | 82° |
| 2026-05-08 02:42 | 32.04581 | -101.91841 | 34999 ft | 466 kts | 82° |
| 2026-05-08 02:43 | 32.05512 | -101.84276 | 34999 ft | 466 kts | 82° |
| 2026-05-08 02:43 | 32.06439 | -101.76713 | 35003 ft | 466 kts | 82° |
| 2026-05-08 02:44 | 32.07361 | -101.69143 | 35002 ft | 466 kts | 82° |
| 2026-05-08 02:44 | 32.08279 | -101.61576 | 34999 ft | 466 kts | 82° |
| 2026-05-08 02:45 | 32.09192 | -101.54007 | 35004 ft | 466 kts | 82° |
| 2026-05-08 02:45 | 32.10101 | -101.46435 | 35005 ft | 466 kts | 82° |
| 2026-05-08 02:46 | 32.11006 | -101.38851 | 35005 ft | 466 kts | 82° |
| 2026-05-08 02:46 | 32.11905 | -101.31283 | 35002 ft | 466 kts | 82° |
| 2026-05-08 02:47 | 32.12801 | -101.23700 | 34999 ft | 466 kts | 82° |
| 2026-05-08 02:47 | 32.13687 | -101.16167 | 35007 ft | 466 kts | 82° |
| 2026-05-08 02:48 | 32.14573 | -101.08585 | 34999 ft | 466 kts | 82° |
| 2026-05-08 02:48 | 32.15455 | -101.01005 | 35005 ft | 466 kts | 82° |
| 2026-05-08 02:49 | 32.16332 | -100.93419 | 35007 ft | 466 kts | 82° |
| 2026-05-08 02:49 | 32.17204 | -100.85841 | 34998 ft | 466 kts | 82° |
| 2026-05-08 02:50 | 32.18073 | -100.78255 | 34998 ft | 465 kts | 82° |
| 2026-05-08 02:50 | 32.18935 | -100.70684 | 34998 ft | 465 kts | 82° |
| 2026-05-08 02:51 | 32.19787 | -100.63154 | 34997 ft | 465 kts | 82° |
| 2026-05-08 02:51 | 32.20639 | -100.55589 | 35006 ft | 465 kts | 82° |
| 2026-05-08 02:52 | 32.21488 | -100.48011 | 35008 ft | 465 kts | 82° |
| 2026-05-08 02:52 | 32.22332 | -100.40429 | 35002 ft | 465 kts | 82° |
| 2026-05-08 02:53 | 32.23172 | -100.32842 | 35008 ft | 465 kts | 82° |
| 2026-05-08 02:53 | 32.24008 | -100.25257 | 35003 ft | 466 kts | 82° |
| 2026-05-08 02:54 | 32.24839 | -100.17667 | 35000 ft | 466 kts | 83° |
| 2026-05-08 02:54 | 32.25662 | -100.10113 | 35002 ft | 466 kts | 83° |
| 2026-05-08 02:55 | 32.26894 | -99.98711 | 35004 ft | 466 kts | 83° |
| 2026-05-08 02:56 | 32.27711 | -99.91109 | 35003 ft | 466 kts | 83° |
| 2026-05-08 02:56 | 32.28364 | -99.83524 | 35000 ft | 466 kts | 86° |
| 2026-05-08 02:57 | 32.28735 | -99.75876 | 34998 ft | 466 kts | 87° |
| 2026-05-08 02:57 | 32.29083 | -99.68229 | 34999 ft | 466 kts | 86° |
| 2026-05-08 02:58 | 32.29462 | -99.60587 | 34998 ft | 466 kts | 86° |
| 2026-05-08 02:58 | 32.29853 | -99.52942 | 35004 ft | 465 kts | 86° |
| 2026-05-08 02:59 | 32.30177 | -99.46590 | 34999 ft | 465 kts | 86° |
| 2026-05-08 02:59 | 32.30623 | -99.37715 | 35002 ft | 465 kts | 86° |
| 2026-05-08 03:00 | 32.30940 | -99.31324 | 34999 ft | 465 kts | 86° |
| 2026-05-08 03:00 | 32.31313 | -99.23692 | 34998 ft | 464 kts | 86° |
| 2026-05-08 03:01 | 32.31679 | -99.16116 | 35004 ft | 464 kts | 86° |
| 2026-05-08 03:01 | 32.32043 | -99.08489 | 35003 ft | 464 kts | 86° |
| 2026-05-08 03:02 | 32.32344 | -99.02138 | 35005 ft | 464 kts | 86° |
| 2026-05-08 03:02 | 32.32698 | -98.94564 | 34999 ft | 464 kts | 86° |
| 2026-05-08 03:03 | 32.33057 | -98.86942 | 35000 ft | 464 kts | 86° |
| 2026-05-08 03:03 | 32.33237 | -98.83116 | 34587 ft | 471 kts | 86° |
| 2026-05-08 03:03 | 32.33417 | -98.79244 | 34010 ft | 471 kts | 87° |
| 2026-05-08 03:03 | 32.33595 | -98.75383 | 33309 ft | 471 kts | 87° |
| 2026-05-08 03:04 | 32.33773 | -98.71508 | 32611 ft | 472 kts | 87° |
| 2026-05-08 03:04 | 32.33950 | -98.67620 | 31888 ft | 473 kts | 87° |
| 2026-05-08 03:04 | 32.34126 | -98.63725 | 31152 ft | 474 kts | 87° |
| 2026-05-08 03:04 | 32.34301 | -98.59826 | 30398 ft | 476 kts | 87° |
| 2026-05-08 03:05 | 32.34475 | -98.55923 | 29721 ft | 475 kts | 87° |
| 2026-05-08 03:05 | 32.34648 | -98.52019 | 28903 ft | 476 kts | 87° |
| 2026-05-08 03:05 | 32.34818 | -98.48148 | 28164 ft | 476 kts | 87° |
| 2026-05-08 03:05 | 32.34988 | -98.44254 | 27619 ft | 471 kts | 87° |
| 2026-05-08 03:06 | 32.35155 | -98.40397 | 27027 ft | 467 kts | 87° |
| 2026-05-08 03:06 | 32.35319 | -98.36608 | 26894 ft | 453 kts | 87° |
| 2026-05-08 03:06 | 32.35476 | -98.32931 | 26655 ft | 442 kts | 87° |
| 2026-05-08 03:06 | 32.35629 | -98.29339 | 26375 ft | 433 kts | 87° |
| 2026-05-08 03:07 | 32.35776 | -98.25790 | 25900 ft | 430 kts | 87° |
| 2026-05-08 03:07 | 32.35920 | -98.22275 | 25438 ft | 426 kts | 87° |
| 2026-05-08 03:07 | 32.36061 | -98.18791 | 25008 ft | 422 kts | 87° |
| 2026-05-08 03:07 | 32.36200 | -98.15342 | 24566 ft | 418 kts | 87° |
| 2026-05-08 03:08 | 32.36338 | -98.11916 | 24129 ft | 414 kts | 87° |
| 2026-05-08 03:08 | 32.36473 | -98.08528 | 23694 ft | 411 kts | 87° |
| 2026-05-08 03:08 | 32.36607 | -98.05168 | 23259 ft | 407 kts | 87° |
| 2026-05-08 03:08 | 32.36738 | -98.01841 | 22830 ft | 404 kts | 87° |
| 2026-05-08 03:09 | 32.36868 | -97.98535 | 22399 ft | 401 kts | 87° |
| 2026-05-08 03:09 | 32.36995 | -97.95292 | 21951 ft | 398 kts | 87° |
| 2026-05-08 03:09 | 32.37121 | -97.92029 | 21534 ft | 395 kts | 87° |
| 2026-05-08 03:09 | 32.37247 | -97.88801 | 21228 ft | 390 kts | 87° |
| 2026-05-08 03:10 | 32.37372 | -97.85613 | 20875 ft | 386 kts | 87° |
| 2026-05-08 03:10 | 32.37496 | -97.82448 | 20444 ft | 384 kts | 87° |
| 2026-05-08 03:10 | 32.37619 | -97.79296 | 19989 ft | 383 kts | 87° |
| 2026-05-08 03:10 | 32.37741 | -97.76152 | 19539 ft | 381 kts | 87° |
| 2026-05-08 03:11 | 32.37861 | -97.73026 | 19087 ft | 380 kts | 87° |
| 2026-05-08 03:11 | 32.37980 | -97.69915 | 18637 ft | 378 kts | 87° |
| 2026-05-08 03:11 | 32.38098 | -97.66814 | 18222 ft | 376 kts | 87° |
| 2026-05-08 03:11 | 32.38403 | -97.63791 | 18090 ft | 364 kts | 72° |
| 2026-05-08 03:12 | 32.39509 | -97.61134 | 17748 ft | 359 kts | 53° |
| 2026-05-08 03:12 | 32.41204 | -97.58980 | 17399 ft | 356 kts | 43° |
| 2026-05-08 03:12 | 32.42984 | -97.57002 | 16966 ft | 355 kts | 43° |
| 2026-05-08 03:12 | 32.44785 | -97.55013 | 16584 ft | 354 kts | 43° |
| 2026-05-08 03:13 | 32.46566 | -97.53012 | 16210 ft | 352 kts | 43° |
| 2026-05-08 03:13 | 32.48330 | -97.51010 | 15809 ft | 350 kts | 44° |
| 2026-05-08 03:13 | 32.50081 | -97.49014 | 15446 ft | 348 kts | 44° |
| 2026-05-08 03:13 | 32.51823 | -97.47022 | 15058 ft | 347 kts | 44° |
| 2026-05-08 03:14 | 32.53555 | -97.45042 | 14682 ft | 345 kts | 44° |
| 2026-05-08 03:14 | 32.55276 | -97.43073 | 14385 ft | 340 kts | 44° |
| 2026-05-08 03:14 | 32.56959 | -97.41146 | 14252 ft | 331 kts | 44° |
| 2026-05-08 03:14 | 32.58593 | -97.39275 | 13890 ft | 330 kts | 44° |
| 2026-05-08 03:15 | 32.60243 | -97.37384 | 13537 ft | 329 kts | 44° |
| 2026-05-08 03:15 | 32.61869 | -97.35520 | 13392 ft | 320 kts | 44° |
| 2026-05-08 03:15 | 32.63453 | -97.33703 | 13240 ft | 313 kts | 44° |
| 2026-05-08 03:15 | 32.64997 | -97.31932 | 13102 ft | 305 kts | 44° |
| 2026-05-08 03:16 | 32.66502 | -97.30204 | 12972 ft | 297 kts | 44° |
| 2026-05-08 03:16 | 32.67967 | -97.28522 | 12839 ft | 289 kts | 44° |
| 2026-05-08 03:16 | 32.69401 | -97.26874 | 12717 ft | 285 kts | 44° |
| 2026-05-08 03:16 | 32.70818 | -97.25245 | 12601 ft | 283 kts | 44° |
| 2026-05-08 03:17 | 32.72214 | -97.23640 | 12487 ft | 281 kts | 44° |
| 2026-05-08 03:17 | 32.73600 | -97.22045 | 12348 ft | 274 kts | 44° |
| 2026-05-08 03:17 | 32.74953 | -97.20488 | 12222 ft | 266 kts | 44° |
| 2026-05-08 03:17 | 32.76266 | -97.18976 | 12101 ft | 261 kts | 44° |
| 2026-05-08 03:18 | 32.77593 | -97.17504 | 11968 ft | 260 kts | 35° |
| 2026-05-08 03:18 | 32.79240 | -97.16732 | 11687 ft | 255 kts | 5° |
| 2026-05-08 03:18 | 32.81018 | -97.16655 | 11370 ft | 256 kts | 360° |
| 2026-05-08 03:18 | 32.82778 | -97.16649 | 11067 ft | 256 kts | 359° |
| 2026-05-08 03:19 | 32.84555 | -97.16646 | 10796 ft | 255 kts | 360° |
| 2026-05-08 03:19 | 32.86324 | -97.16639 | 10520 ft | 253 kts | 360° |
| 2026-05-08 03:19 | 32.88087 | -97.16628 | 10243 ft | 253 kts | 360° |
| 2026-05-08 03:19 | 32.89842 | -97.16614 | 9971 ft | 251 kts | 360° |
| 2026-05-08 03:20 | 32.91589 | -97.16597 | 9699 ft | 250 kts | 0° |
| 2026-05-08 03:20 | 32.93328 | -97.16579 | 9430 ft | 249 kts | 0° |
| 2026-05-08 03:20 | 32.95060 | -97.16560 | 9157 ft | 248 kts | 0° |
| 2026-05-08 03:20 | 32.96789 | -97.16540 | 8888 ft | 247 kts | 0° |
| 2026-05-08 03:21 | 32.98509 | -97.16521 | 8623 ft | 246 kts | 0° |
| 2026-05-08 03:21 | 33.00222 | -97.16501 | 8357 ft | 245 kts | 0° |
| 2026-05-08 03:21 | 33.01925 | -97.16482 | 8091 ft | 244 kts | 0° |
| 2026-05-08 03:21 | 33.03624 | -97.16462 | 7826 ft | 243 kts | 0° |
| 2026-05-08 03:22 | 33.05312 | -97.16443 | 7561 ft | 243 kts | 0° |
| 2026-05-08 03:22 | 33.06998 | -97.16424 | 7296 ft | 242 kts | 0° |
| 2026-05-08 03:22 | 33.08655 | -97.16405 | 7039 ft | 241 kts | 0° |
| 2026-05-08 03:22 | 33.10330 | -97.16386 | 6773 ft | 240 kts | 0° |
| 2026-05-08 03:23 | 33.12004 | -97.16367 | 6401 ft | 244 kts | 0° |
| 2026-05-08 03:23 | 33.13779 | -97.16267 | 5601 ft | 267 kts | 12° |
| 2026-05-08 03:23 | 33.15420 | -97.15293 | 5404 ft | 260 kts | 43° |
| 2026-05-08 03:23 | 33.16397 | -97.13558 | 5360 ft | 248 kts | 73° |
| 2026-05-08 03:24 | 33.16580 | -97.11582 | 5395 ft | 232 kts | 91° |
| 2026-05-08 03:24 | 33.16530 | -97.09673 | 5396 ft | 229 kts | 92° |
| 2026-05-08 03:24 | 33.16215 | -97.07826 | 5366 ft | 229 kts | 118° |
| 2026-05-08 03:24 | 33.15172 | -97.06471 | 5384 ft | 226 kts | 148° |
| 2026-05-08 03:25 | 33.13789 | -97.05561 | 5377 ft | 227 kts | 159° |
| 2026-05-08 03:25 | 33.12247 | -97.05320 | 5397 ft | 220 kts | 184° |
| 2026-05-08 03:25 | 33.10772 | -97.05391 | 5386 ft | 201 kts | 183° |
| 2026-05-08 03:25 | 33.09440 | -97.05490 | 5351 ft | 186 kts | 185° |
| 2026-05-08 03:26 | 33.08166 | -97.05590 | 5383 ft | 182 kts | 184° |
| 2026-05-08 03:26 | 33.06898 | -97.05676 | 5499 ft | 186 kts | 184° |
| 2026-05-08 03:26 | 33.05598 | -97.05762 | 5296 ft | 186 kts | 184° |
| 2026-05-08 03:26 | 33.04279 | -97.05847 | 4759 ft | 194 kts | 182° |
| 2026-05-08 03:27 | 33.02929 | -97.05788 | 4208 ft | 194 kts | 174° |